Terminal Aerodrome Forecast
Issued by NWS Omaha/Valley, NE

Home | Current Version | Previous Version | Graphics & Text | Print | Product List | Glossary On
Versions: 1 2 3 4 5 6 7 8 9 10 11 12 13 14 15 16 17 18 19 20 21 22 23 24 25 26 27 28 29 30 31 32 33 34 35 36
000
FTUS43 KOAX 181122
TAFOFK
TAF
KOFK 181122Z 1812/1912 10005KT P6SM BKN045 OVC080
      TEMPO 1812/1816 4SM TSRA BKN035CB
     FM181600 12008KT 4SM -RA BR OVC015
     FM182000 18008KT P6SM OVC045
      TEMPO 1821/1901 3SM TSRA OVC025CB
     FM190100 16005KT P6SM OVC100
     FM191000 32013G20KT P6SM OVC025=

USA.gov is the U.S. government's official web portal to all federal, state and local government web resources and services.